Court-Saint-Etienne, Belgium
Current Conditions -  °F | °C
As of 3:25 PM on Saturday 25 Oct 2014 (Local Time) from EBBE Reporting Station
Broken Clouds Broken Clouds  
Wind Chill: 57°   Ceiling: 4200
Heat Index: 57°   Visibility: 6mi
Dew Point: 54°   Wind: 8mph
Humidity: 88%   Direction: 230°SW
Pressure: 30.12"   Gusts: NA
Location:  50.63°N, 4.57°E
Report Text: EBBE 251325Z AUTO 23007KT 9999 FEW009/// SCT027/// BKN042/// 14/12 Q1020 BLU
Loading
Personal Weather Stations






























Interactive Weather Map New forecast layout! Learn more

10-Day Weather Forecast

Advertisements
Track Severe Weather on mobile